sensor_id;sensor_type;location;lat;lon;timestamp;temperature;humidity
20233;DHT22;37438;55.674;13.074;2023-04-07T00:00:44;0.30;1.00
20233;DHT22;37438;55.674;13.074;2023-04-07T00:03:48;0.10;1.00
20233;DHT22;37438;55.674;13.074;2023-04-07T00:06:53;0.10;1.00
20233;DHT22;37438;55.674;13.074;2023-04-07T00:09:58;0.00;14.10
20233;DHT22;37438;55.674;13.074;2023-04-07T00:13:02;0.10;50.80
20233;DHT22;37438;55.674;13.074;2023-04-07T00:16:06;0.10;90.40
20233;DHT22;37438;55.674;13.074;2023-04-07T00:19:11;0.10;99.90
20233;DHT22;37438;55.674;13.074;2023-04-07T00:22:15;0.10;99.90
20233;DHT22;37438;55.674;13.074;2023-04-07T00:25:19;-0.10;99.90
20233;DHT22;37438;55.674;13.074;2023-04-07T00:28:24;0.00;99.90
20233;DHT22;37438;55.674;13.074;2023-04-07T00:31:28;0.00;99.90
20233;DHT22;37438;55.674;13.074;2023-04-07T00:34:32;0.10;99.90
20233;DHT22;37438;55.674;13.074;2023-04-07T00:37:37;0.00;99.90
20233;DHT22;37438;55.674;13.074;2023-04-07T00:40:41;0.10;99.90
20233;DHT22;37438;55.674;13.074;2023-04-07T00:43:45;0.20;99.90
20233;DHT22;37438;55.674;13.074;2023-04-07T00:46:49;0.20;99.90
20233;DHT22;37438;55.674;13.074;2023-04-07T00:49:54;0.10;99.90
20233;DHT22;37438;55.674;13.074;2023-04-07T00:52:58;0.20;99.90
20233;DHT22;37438;55.674;13.074;2023-04-07T00:56:03;0.20;99.90
20233;DHT22;37438;55.674;13.074;2023-04-07T00:59:07;0.20;99.90
20233;DHT22;37438;55.674;13.074;2023-04-07T01:02:16;0.10;99.90
20233;DHT22;37438;55.674;13.074;2023-04-07T01:05:22;0.00;99.90
20233;DHT22;37438;55.674;13.074;2023-04-07T01:08:30;0.00;19.10
20233;DHT22;37438;55.674;13.074;2023-04-07T01:14:57;-0.10;49.40
20233;DHT22;37438;55.674;13.074;2023-04-07T01:18:14;-0.20;92.50
20233;DHT22;37438;55.674;13.074;2023-04-07T01:21:23;-0.10;99.90
20233;DHT22;37438;55.674;13.074;2023-04-07T01:30:59;-0.20;99.90
20233;DHT22;37438;55.674;13.074;2023-04-07T01:34:05;-0.30;99.90
20233;DHT22;37438;55.674;13.074;2023-04-07T01:37:09;-0.30;99.90
20233;DHT22;37438;55.674;13.074;2023-04-07T01:40:14;-0.30;99.90
20233;DHT22;37438;55.674;13.074;2023-04-07T01:43:20;-0.30;99.90
20233;DHT22;37438;55.674;13.074;2023-04-07T01:46:24;-0.40;99.90
20233;DHT22;37438;55.674;13.074;2023-04-07T01:49:29;-0.40;99.90
20233;DHT22;37438;55.674;13.074;2023-04-07T01:52:35;-0.40;99.90
20233;DHT22;37438;55.674;13.074;2023-04-07T01:55:40;-0.40;99.90
20233;DHT22;37438;55.674;13.074;2023-04-07T01:58:45;-0.40;99.90
20233;DHT22;37438;55.674;13.074;2023-04-07T02:01:53;-0.40;99.90
20233;DHT22;37438;55.674;13.074;2023-04-07T02:04:59;-0.50;99.90
20233;DHT22;37438;55.674;13.074;2023-04-07T02:08:09;-0.40;99.90
20233;DHT22;37438;55.674;13.074;2023-04-07T02:11:16;-0.40;99.90
20233;DHT22;37438;55.674;13.074;2023-04-07T02:14:21;-0.40;99.90
20233;DHT22;37438;55.674;13.074;2023-04-07T02:17:37;-0.50;99.90
20233;DHT22;37438;55.674;13.074;2023-04-07T02:20:42;-0.60;99.90
20233;DHT22;37438;55.674;13.074;2023-04-07T02:23:48;-0.60;99.90
20233;DHT22;37438;55.674;13.074;2023-04-07T02:26:52;-0.60;99.90
20233;DHT22;37438;55.674;13.074;2023-04-07T02:29:57;-0.60;99.90
20233;DHT22;37438;55.674;13.074;2023-04-07T02:33:01;-0.60;99.90
20233;DHT22;37438;55.674;13.074;2023-04-07T02:36:05;-0.70;99.90
20233;DHT22;37438;55.674;13.074;2023-04-07T02:39:10;-0.70;99.90
20233;DHT22;37438;55.674;13.074;2023-04-07T02:42:14;-0.70;1.00
20233;DHT22;37438;55.674;13.074;2023-04-07T02:45:18;-0.80;1.00
20233;DHT22;37438;55.674;13.074;2023-04-07T02:48:23;-0.90;1.00
20233;DHT22;37438;55.674;13.074;2023-04-07T02:51:27;-0.80;1.00
20233;DHT22;37438;55.674;13.074;2023-04-07T02:54:32;-0.90;1.00
20233;DHT22;37438;55.674;13.074;2023-04-07T02:57:36;-1.00;7.50
20233;DHT22;37438;55.674;13.074;2023-04-07T03:00:46;-1.00;35.30
20233;DHT22;37438;55.674;13.074;2023-04-07T03:03:57;-1.00;75.40
20233;DHT22;37438;55.674;13.074;2023-04-07T03:07:02;-1.00;93.20
20233;DHT22;37438;55.674;13.074;2023-04-07T03:10:08;-1.00;99.90
20233;DHT22;37438;55.674;13.074;2023-04-07T03:13:13;-1.10;99.90
20233;DHT22;37438;55.674;13.074;2023-04-07T03:16:20;-1.10;99.90
20233;DHT22;37438;55.674;13.074;2023-04-07T03:19:50;-1.00;99.90
20233;DHT22;37438;55.674;13.074;2023-04-07T03:22:56;-1.10;99.90
20233;DHT22;37438;55.674;13.074;2023-04-07T03:26:04;-1.00;99.90
20233;DHT22;37438;55.674;13.074;2023-04-07T03:29:12;-1.00;99.90
20233;DHT22;37438;55.674;13.074;2023-04-07T03:32:18;-1.00;99.90
20233;DHT22;37438;55.674;13.074;2023-04-07T03:35:23;-1.00;99.90
20233;DHT22;37438;55.674;13.074;2023-04-07T03:38:27;-1.10;99.90
20233;DHT22;37438;55.674;13.074;2023-04-07T03:41:36;-1.10;99.90
20233;DHT22;37438;55.674;13.074;2023-04-07T03:44:41;-1.20;99.90
20233;DHT22;37438;55.674;13.074;2023-04-07T03:47:46;-1.20;99.90
20233;DHT22;37438;55.674;13.074;2023-04-07T03:50:52;-1.30;99.90
20233;DHT22;37438;55.674;13.074;2023-04-07T03:53:57;-1.30;99.90
20233;DHT22;37438;55.674;13.074;2023-04-07T03:57:11;-1.30;99.90
20233;DHT22;37438;55.674;13.074;2023-04-07T04:00:20;-1.40;99.90
20233;DHT22;37438;55.674;13.074;2023-04-07T04:03:39;-1.30;99.90
20233;DHT22;37438;55.674;13.074;2023-04-07T04:07:00;-1.40;99.90
20233;DHT22;37438;55.674;13.074;2023-04-07T04:10:16;-1.40;99.90
20233;DHT22;37438;55.674;13.074;2023-04-07T04:13:24;-1.40;99.90
20233;DHT22;37438;55.674;13.074;2023-04-07T04:16:31;-1.40;99.90
20233;DHT22;37438;55.674;13.074;2023-04-07T04:19:44;-1.40;99.90
20233;DHT22;37438;55.674;13.074;2023-04-07T04:22:56;-1.40;99.90
20233;DHT22;37438;55.674;13.074;2023-04-07T04:26:01;-1.40;99.90
20233;DHT22;37438;55.674;13.074;2023-04-07T04:29:09;-1.40;99.90
20233;DHT22;37438;55.674;13.074;2023-04-07T04:32:14;-1.40;99.90
20233;DHT22;37438;55.674;13.074;2023-04-07T04:35:20;-1.40;99.90
20233;DHT22;37438;55.674;13.074;2023-04-07T04:38:38;-1.30;99.90
20233;DHT22;37438;55.674;13.074;2023-04-07T04:41:57;-1.40;99.90
20233;DHT22;37438;55.674;13.074;2023-04-07T04:45:08;-1.30;99.90
20233;DHT22;37438;55.674;13.074;2023-04-07T04:48:14;-1.30;99.90
20233;DHT22;37438;55.674;13.074;2023-04-07T04:51:19;-1.30;99.90
20233;DHT22;37438;55.674;13.074;2023-04-07T04:54:28;-1.30;99.90
20233;DHT22;37438;55.674;13.074;2023-04-07T04:57:33;-1.20;99.90
20233;DHT22;37438;55.674;13.074;2023-04-07T05:00:43;-1.10;99.90
20233;DHT22;37438;55.674;13.074;2023-04-07T05:03:47;-1.10;99.90
20233;DHT22;37438;55.674;13.074;2023-04-07T05:07:02;-1.00;99.90
20233;DHT22;37438;55.674;13.074;2023-04-07T05:10:08;-1.00;99.90
20233;DHT22;37438;55.674;13.074;2023-04-07T05:13:21;-1.00;99.90
20233;DHT22;37438;55.674;13.074;2023-04-07T05:16:26;-1.00;99.90
20233;DHT22;37438;55.674;13.074;2023-04-07T05:19:31;-0.90;99.90
20233;DHT22;37438;55.674;13.074;2023-04-07T05:22:41;-0.90;99.90
20233;DHT22;37438;55.674;13.074;2023-04-07T05:25:50;-0.90;99.90
20233;DHT22;37438;55.674;13.074;2023-04-07T05:28:55;-0.70;99.90
20233;DHT22;37438;55.674;13.074;2023-04-07T05:32:03;-0.70;99.90
20233;DHT22;37438;55.674;13.074;2023-04-07T05:35:08;-0.60;99.90
20233;DHT22;37438;55.674;13.074;2023-04-07T05:38:17;-0.50;99.90
20233;DHT22;37438;55.674;13.074;2023-04-07T05:41:22;-0.30;99.90
20233;DHT22;37438;55.674;13.074;2023-04-07T05:44:26;-0.30;99.90
20233;DHT22;37438;55.674;13.074;2023-04-07T05:47:32;-0.10;99.90
20233;DHT22;37438;55.674;13.074;2023-04-07T05:50:37;-0.10;99.90
20233;DHT22;37438;55.674;13.074;2023-04-07T05:53:46;-0.10;99.90
20233;DHT22;37438;55.674;13.074;2023-04-07T05:56:52;0.10;99.90
20233;DHT22;37438;55.674;13.074;2023-04-07T05:59:58;0.20;99.90
20233;DHT22;37438;55.674;13.074;2023-04-07T06:03:02;0.30;99.90
20233;DHT22;37438;55.674;13.074;2023-04-07T06:06:14;0.40;99.90
20233;DHT22;37438;55.674;13.074;2023-04-07T06:09:20;0.50;99.90
20233;DHT22;37438;55.674;13.074;2023-04-07T06:12:24;0.60;99.90
20233;DHT22;37438;55.674;13.074;2023-04-07T06:15:29;0.70;99.90
20233;DHT22;37438;55.674;13.074;2023-04-07T06:18:34;0.80;99.90
20233;DHT22;37438;55.674;13.074;2023-04-07T06:21:39;0.80;99.90
20233;DHT22;37438;55.674;13.074;2023-04-07T06:24:44;0.90;99.90
20233;DHT22;37438;55.674;13.074;2023-04-07T06:27:48;1.00;99.90
20233;DHT22;37438;55.674;13.074;2023-04-07T06:30:53;1.00;99.90
20233;DHT22;37438;55.674;13.074;2023-04-07T06:33:57;1.20;99.90
20233;DHT22;37438;55.674;13.074;2023-04-07T06:37:01;1.20;99.90
20233;DHT22;37438;55.674;13.074;2023-04-07T06:40:06;1.40;99.90
20233;DHT22;37438;55.674;13.074;2023-04-07T06:43:11;1.40;99.90
20233;DHT22;37438;55.674;13.074;2023-04-07T06:46:38;1.60;99.90
20233;DHT22;37438;55.674;13.074;2023-04-07T06:49:43;1.70;99.90
20233;DHT22;37438;55.674;13.074;2023-04-07T06:52:47;1.70;99.90
20233;DHT22;37438;55.674;13.074;2023-04-07T06:56:01;1.80;99.90
20233;DHT22;37438;55.674;13.074;2023-04-07T06:59:05;2.00;99.90
20233;DHT22;37438;55.674;13.074;2023-04-07T07:02:10;2.00;99.90
20233;DHT22;37438;55.674;13.074;2023-04-07T07:05:15;2.00;99.90
20233;DHT22;37438;55.674;13.074;2023-04-07T07:08:19;2.20;4.80
20233;DHT22;37438;55.674;13.074;2023-04-07T07:11:23;2.20;99.90
20233;DHT22;37438;55.674;13.074;2023-04-07T07:14:28;2.30;99.90
20233;DHT22;37438;55.674;13.074;2023-04-07T07:17:33;2.50;99.90
20233;DHT22;37438;55.674;13.074;2023-04-07T07:20:37;2.60;53.30
20233;DHT22;37438;55.674;13.074;2023-04-07T07:23:42;2.70;1.00
20233;DHT22;37438;55.674;13.074;2023-04-07T07:26:46;2.80;99.90
20233;DHT22;37438;55.674;13.074;2023-04-07T07:29:51;2.80;99.90
20233;DHT22;37438;55.674;13.074;2023-04-07T07:32:55;2.90;61.50
20233;DHT22;37438;55.674;13.074;2023-04-07T07:35:59;3.10;80.20
20233;DHT22;37438;55.674;13.074;2023-04-07T07:39:04;3.30;56.90
20233;DHT22;37438;55.674;13.074;2023-04-07T07:42:09;3.40;1.00
20233;DHT22;37438;55.674;13.074;2023-04-07T07:45:13;3.50;99.90
20233;DHT22;37438;55.674;13.074;2023-04-07T07:48:18;3.60;99.90
20233;DHT22;37438;55.674;13.074;2023-04-07T07:51:23;3.60;99.90
20233;DHT22;37438;55.674;13.074;2023-04-07T07:54:27;3.80;98.60
20233;DHT22;37438;55.674;13.074;2023-04-07T07:57:31;4.00;1.00
20233;DHT22;37438;55.674;13.074;2023-04-07T08:00:36;4.20;99.90
20233;DHT22;37438;55.674;13.074;2023-04-07T08:03:40;4.20;1.00
20233;DHT22;37438;55.674;13.074;2023-04-07T08:06:45;4.30;99.90
20233;DHT22;37438;55.674;13.074;2023-04-07T08:09:49;4.50;99.90
20233;DHT22;37438;55.674;13.074;2023-04-07T08:12:54;4.50;1.00
20233;DHT22;37438;55.674;13.074;2023-04-07T08:15:58;4.50;99.90
20233;DHT22;37438;55.674;13.074;2023-04-07T08:19:03;4.60;99.90
20233;DHT22;37438;55.674;13.074;2023-04-07T08:22:07;4.80;24.80
20233;DHT22;37438;55.674;13.074;2023-04-07T08:25:12;5.00;1.00
20233;DHT22;37438;55.674;13.074;2023-04-07T08:28:17;5.20;99.90
20233;DHT22;37438;55.674;13.074;2023-04-07T08:31:21;5.20;99.90
20233;DHT22;37438;55.674;13.074;2023-04-07T08:34:26;5.30;99.90
20233;DHT22;37438;55.674;13.074;2023-04-07T08:37:31;5.30;14.90
20233;DHT22;37438;55.674;13.074;2023-04-07T08:40:35;5.40;1.00
20233;DHT22;37438;55.674;13.074;2023-04-07T08:43:40;5.50;1.00
20233;DHT22;37438;55.674;13.074;2023-04-07T08:46:46;5.60;99.90
20233;DHT22;37438;55.674;13.074;2023-04-07T08:49:52;5.70;99.90
20233;DHT22;37438;55.674;13.074;2023-04-07T08:52:58;5.80;99.90
20233;DHT22;37438;55.674;13.074;2023-04-07T08:56:03;6.10;99.90
20233;DHT22;37438;55.674;13.074;2023-04-07T08:59:10;6.00;99.90
20233;DHT22;37438;55.674;13.074;2023-04-07T09:02:15;6.00;48.10
20233;DHT22;37438;55.674;13.074;2023-04-07T09:05:19;5.90;1.00
20233;DHT22;37438;55.674;13.074;2023-04-07T09:08:24;5.90;1.00
20233;DHT22;37438;55.674;13.074;2023-04-07T09:11:28;5.90;1.00
20233;DHT22;37438;55.674;13.074;2023-04-07T09:14:33;6.00;99.90
20233;DHT22;37438;55.674;13.074;2023-04-07T09:17:37;6.00;1.00
20233;DHT22;37438;55.674;13.074;2023-04-07T09:24:04;5.90;99.90
20233;DHT22;37438;55.674;13.074;2023-04-07T09:27:23;6.00;99.90
20233;DHT22;37438;55.674;13.074;2023-04-07T09:30:28;5.90;99.90
20233;DHT22;37438;55.674;13.074;2023-04-07T09:33:33;6.10;99.90
20233;DHT22;37438;55.674;13.074;2023-04-07T09:36:42;6.20;99.90
20233;DHT22;37438;55.674;13.074;2023-04-07T09:39:47;6.20;99.90
20233;DHT22;37438;55.674;13.074;2023-04-07T09:42:52;6.40;99.90
20233;DHT22;37438;55.674;13.074;2023-04-07T09:46:13;6.60;99.90
20233;DHT22;37438;55.674;13.074;2023-04-07T09:49:18;6.60;99.90
20233;DHT22;37438;55.674;13.074;2023-04-07T09:55:46;6.70;99.90
20233;DHT22;37438;55.674;13.074;2023-04-07T09:58:52;6.90;99.90
20233;DHT22;37438;55.674;13.074;2023-04-07T10:01:56;7.00;99.90
20233;DHT22;37438;55.674;13.074;2023-04-07T10:05:01;6.90;99.90
20233;DHT22;37438;55.674;13.074;2023-04-07T10:08:06;6.80;99.90
20233;DHT22;37438;55.674;13.074;2023-04-07T10:11:11;7.00;99.90
20233;DHT22;37438;55.674;13.074;2023-04-07T10:14:15;7.00;99.90
20233;DHT22;37438;55.674;13.074;2023-04-07T10:17:20;7.10;99.90
20233;DHT22;37438;55.674;13.074;2023-04-07T10:20:25;7.30;99.90
20233;DHT22;37438;55.674;13.074;2023-04-07T10:23:31;7.50;99.90
20233;DHT22;37438;55.674;13.074;2023-04-07T10:26:40;7.70;99.90
20233;DHT22;37438;55.674;13.074;2023-04-07T10:29:45;7.70;99.90
20233;DHT22;37438;55.674;13.074;2023-04-07T10:32:52;7.90;99.90
20233;DHT22;37438;55.674;13.074;2023-04-07T10:36:07;8.10;99.90
20233;DHT22;37438;55.674;13.074;2023-04-07T10:49:07;8.40;99.60
20233;DHT22;37438;55.674;13.074;2023-04-07T10:55:36;8.60;59.30
20233;DHT22;37438;55.674;13.074;2023-04-07T10:58:40;8.60;36.50
20233;DHT22;37438;55.674;13.074;2023-04-07T11:01:45;9.10;21.20
20233;DHT22;37438;55.674;13.074;2023-04-07T11:04:50;9.20;1.00
20233;DHT22;37438;55.674;13.074;2023-04-07T11:07:54;9.50;1.00
20233;DHT22;37438;55.674;13.074;2023-04-07T11:11:00;9.20;1.00
20233;DHT22;37438;55.674;13.074;2023-04-07T11:14:05;9.70;1.00
20233;DHT22;37438;55.674;13.074;2023-04-07T11:17:13;9.40;1.00
20233;DHT22;37438;55.674;13.074;2023-04-07T11:20:18;8.60;1.00
20233;DHT22;37438;55.674;13.074;2023-04-07T11:23:23;8.60;1.00
20233;DHT22;37438;55.674;13.074;2023-04-07T11:26:28;8.70;1.00
20233;DHT22;37438;55.674;13.074;2023-04-07T11:29:33;9.40;1.00
20233;DHT22;37438;55.674;13.074;2023-04-07T11:32:38;9.70;1.00
20233;DHT22;37438;55.674;13.074;2023-04-07T11:35:48;10.00;1.00
20233;DHT22;37438;55.674;13.074;2023-04-07T11:38:52;9.90;1.00
20233;DHT22;37438;55.674;13.074;2023-04-07T11:41:56;10.00;1.00
20233;DHT22;37438;55.674;13.074;2023-04-07T11:45:01;9.70;1.00
20233;DHT22;37438;55.674;13.074;2023-04-07T11:48:24;9.20;1.00
20233;DHT22;37438;55.674;13.074;2023-04-07T11:51:28;8.80;1.00
20233;DHT22;37438;55.674;13.074;2023-04-07T11:54:43;9.20;1.00
20233;DHT22;37438;55.674;13.074;2023-04-07T11:57:49;9.50;1.00
20233;DHT22;37438;55.674;13.074;2023-04-07T12:00:55;10.00;99.90
20233;DHT22;37438;55.674;13.074;2023-04-07T12:04:01;9.30;99.90
20233;DHT22;37438;55.674;13.074;2023-04-07T12:07:09;9.20;1.00
20233;DHT22;37438;55.674;13.074;2023-04-07T12:10:22;10.10;99.90
20233;DHT22;37438;55.674;13.074;2023-04-07T12:13:26;10.40;99.90
20233;DHT22;37438;55.674;13.074;2023-04-07T12:16:31;11.10;99.90
20233;DHT22;37438;55.674;13.074;2023-04-07T12:19:36;11.00;99.90
20233;DHT22;37438;55.674;13.074;2023-04-07T12:22:43;11.00;99.90
20233;DHT22;37438;55.674;13.074;2023-04-07T12:25:47;11.10;99.90
20233;DHT22;37438;55.674;13.074;2023-04-07T12:28:52;10.70;99.90
20233;DHT22;37438;55.674;13.074;2023-04-07T12:31:56;10.70;99.90
20233;DHT22;37438;55.674;13.074;2023-04-07T12:35:00;10.00;99.90
20233;DHT22;37438;55.674;13.074;2023-04-07T12:38:05;10.70;99.90
20233;DHT22;37438;55.674;13.074;2023-04-07T12:41:09;11.20;99.90
20233;DHT22;37438;55.674;13.074;2023-04-07T12:44:14;11.10;99.90
20233;DHT22;37438;55.674;13.074;2023-04-07T12:47:18;11.30;99.90
20233;DHT22;37438;55.674;13.074;2023-04-07T12:50:23;11.60;99.90
20233;DHT22;37438;55.674;13.074;2023-04-07T12:53:32;11.10;99.90
20233;DHT22;37438;55.674;13.074;2023-04-07T12:56:36;11.00;99.90
20233;DHT22;37438;55.674;13.074;2023-04-07T12:59:41;11.60;99.90
20233;DHT22;37438;55.674;13.074;2023-04-07T13:02:45;11.90;99.90
20233;DHT22;37438;55.674;13.074;2023-04-07T13:05:50;11.50;99.90
20233;DHT22;37438;55.674;13.074;2023-04-07T13:08:54;11.10;99.90
20233;DHT22;37438;55.674;13.074;2023-04-07T13:11:59;11.20;99.90
20233;DHT22;37438;55.674;13.074;2023-04-07T13:15:04;11.60;99.90
20233;DHT22;37438;55.674;13.074;2023-04-07T13:18:08;11.50;99.90
20233;DHT22;37438;55.674;13.074;2023-04-07T13:21:12;11.00;99.90
20233;DHT22;37438;55.674;13.074;2023-04-07T13:24:20;11.00;99.90
20233;DHT22;37438;55.674;13.074;2023-04-07T13:27:24;10.80;99.90
20233;DHT22;37438;55.674;13.074;2023-04-07T13:30:29;10.50;99.90
20233;DHT22;37438;55.674;13.074;2023-04-07T13:33:33;10.50;99.90
20233;DHT22;37438;55.674;13.074;2023-04-07T13:36:38;10.40;99.90
20233;DHT22;37438;55.674;13.074;2023-04-07T13:39:43;10.60;99.90
20233;DHT22;37438;55.674;13.074;2023-04-07T13:42:47;10.70;99.90
20233;DHT22;37438;55.674;13.074;2023-04-07T13:45:52;10.90;99.90
20233;DHT22;37438;55.674;13.074;2023-04-07T13:48:57;11.10;99.90
20233;DHT22;37438;55.674;13.074;2023-04-07T13:52:01;10.90;99.90
20233;DHT22;37438;55.674;13.074;2023-04-07T13:55:06;11.10;99.90
20233;DHT22;37438;55.674;13.074;2023-04-07T13:58:10;10.90;99.90
20233;DHT22;37438;55.674;13.074;2023-04-07T14:01:14;10.90;99.90
20233;DHT22;37438;55.674;13.074;2023-04-07T14:04:19;11.10;99.90
20233;DHT22;37438;55.674;13.074;2023-04-07T14:07:24;11.30;99.90
20233;DHT22;37438;55.674;13.074;2023-04-07T14:10:28;11.30;99.90
20233;DHT22;37438;55.674;13.074;2023-04-07T14:13:33;11.10;99.90
20233;DHT22;37438;55.674;13.074;2023-04-07T14:16:37;11.10;99.90
20233;DHT22;37438;55.674;13.074;2023-04-07T14:19:41;11.10;99.90
20233;DHT22;37438;55.674;13.074;2023-04-07T14:22:46;10.90;99.90
20233;DHT22;37438;55.674;13.074;2023-04-07T14:25:50;10.90;99.90
20233;DHT22;37438;55.674;13.074;2023-04-07T14:28:54;10.60;99.90
20233;DHT22;37438;55.674;13.074;2023-04-07T14:31:59;10.50;99.90
20233;DHT22;37438;55.674;13.074;2023-04-07T14:35:04;10.50;99.90
20233;DHT22;37438;55.674;13.074;2023-04-07T14:38:09;10.20;1.00
20233;DHT22;37438;55.674;13.074;2023-04-07T14:41:13;10.20;99.90
20233;DHT22;37438;55.674;13.074;2023-04-07T14:44:17;9.80;1.00
20233;DHT22;37438;55.674;13.074;2023-04-07T14:47:22;9.90;1.00
20233;DHT22;37438;55.674;13.074;2023-04-07T14:50:26;9.90;1.00
20233;DHT22;37438;55.674;13.074;2023-04-07T14:53:31;9.90;1.00
20233;DHT22;37438;55.674;13.074;2023-04-07T14:56:35;10.10;1.00
20233;DHT22;37438;55.674;13.074;2023-04-07T14:59:40;9.90;1.00
20233;DHT22;37438;55.674;13.074;2023-04-07T15:02:44;9.80;1.00
20233;DHT22;37438;55.674;13.074;2023-04-07T15:05:48;9.80;1.00
20233;DHT22;37438;55.674;13.074;2023-04-07T15:08:53;9.60;1.00
20233;DHT22;37438;55.674;13.074;2023-04-07T15:11:58;9.60;1.00
20233;DHT22;37438;55.674;13.074;2023-04-07T15:15:03;9.70;1.00
20233;DHT22;37438;55.674;13.074;2023-04-07T15:18:08;9.60;1.00
20233;DHT22;37438;55.674;13.074;2023-04-07T15:21:12;9.50;1.00
20233;DHT22;37438;55.674;13.074;2023-04-07T15:24:18;9.40;1.00
20233;DHT22;37438;55.674;13.074;2023-04-07T15:27:24;9.50;8.70
20233;DHT22;37438;55.674;13.074;2023-04-07T15:30:29;9.60;1.90
20233;DHT22;37438;55.674;13.074;2023-04-07T15:33:39;9.40;21.20
20233;DHT22;37438;55.674;13.074;2023-04-07T15:36:43;9.50;24.50
20233;DHT22;37438;55.674;13.074;2023-04-07T15:39:49;9.50;22.80
20233;DHT22;37438;55.674;13.074;2023-04-07T15:42:53;9.50;24.80
20233;DHT22;37438;55.674;13.074;2023-04-07T15:45:58;9.20;66.70
20233;DHT22;37438;55.674;13.074;2023-04-07T15:49:03;9.10;81.40
20233;DHT22;37438;55.674;13.074;2023-04-07T15:52:08;9.10;98.00
20233;DHT22;37438;55.674;13.074;2023-04-07T15:55:13;9.20;99.90
20233;DHT22;37438;55.674;13.074;2023-04-07T15:58:17;9.10;99.90
20233;DHT22;37438;55.674;13.074;2023-04-07T16:01:22;9.20;99.90
20233;DHT22;37438;55.674;13.074;2023-04-07T16:04:26;9.00;99.90
20233;DHT22;37438;55.674;13.074;2023-04-07T16:07:31;9.10;99.90
20233;DHT22;37438;55.674;13.074;2023-04-07T16:10:35;9.10;99.90
20233;DHT22;37438;55.674;13.074;2023-04-07T16:13:40;9.00;99.90
20233;DHT22;37438;55.674;13.074;2023-04-07T16:16:44;9.10;99.90
20233;DHT22;37438;55.674;13.074;2023-04-07T16:19:49;9.00;99.90
20233;DHT22;37438;55.674;13.074;2023-04-07T16:22:53;9.10;99.90
20233;DHT22;37438;55.674;13.074;2023-04-07T16:25:57;9.10;99.90
20233;DHT22;37438;55.674;13.074;2023-04-07T16:29:01;9.10;99.90
20233;DHT22;37438;55.674;13.074;2023-04-07T16:32:05;9.10;99.90
20233;DHT22;37438;55.674;13.074;2023-04-07T16:35:10;9.10;99.90
20233;DHT22;37438;55.674;13.074;2023-04-07T16:38:15;9.10;99.90
20233;DHT22;37438;55.674;13.074;2023-04-07T16:41:19;9.10;99.90
20233;DHT22;37438;55.674;13.074;2023-04-07T16:44:24;9.10;99.90
20233;DHT22;37438;55.674;13.074;2023-04-07T16:47:29;9.10;99.90
20233;DHT22;37438;55.674;13.074;2023-04-07T16:50:34;9.00;99.90
20233;DHT22;37438;55.674;13.074;2023-04-07T16:53:39;9.10;99.90
20233;DHT22;37438;55.674;13.074;2023-04-07T16:56:43;9.00;99.90
20233;DHT22;37438;55.674;13.074;2023-04-07T16:59:47;9.00;99.90
20233;DHT22;37438;55.674;13.074;2023-04-07T17:02:51;9.00;99.90
20233;DHT22;37438;55.674;13.074;2023-04-07T17:05:55;9.00;99.90
20233;DHT22;37438;55.674;13.074;2023-04-07T17:09:00;8.90;99.90
20233;DHT22;37438;55.674;13.074;2023-04-07T17:12:04;8.90;99.90
20233;DHT22;37438;55.674;13.074;2023-04-07T17:15:09;8.90;99.90
20233;DHT22;37438;55.674;13.074;2023-04-07T17:18:14;8.90;99.90
20233;DHT22;37438;55.674;13.074;2023-04-07T17:21:19;8.80;99.90
20233;DHT22;37438;55.674;13.074;2023-04-07T17:24:23;8.80;99.90
20233;DHT22;37438;55.674;13.074;2023-04-07T17:27:28;8.80;99.90
20233;DHT22;37438;55.674;13.074;2023-04-07T17:30:32;8.80;99.90
20233;DHT22;37438;55.674;13.074;2023-04-07T17:33:36;8.80;99.90
20233;DHT22;37438;55.674;13.074;2023-04-07T17:36:41;8.80;99.90
20233;DHT22;37438;55.674;13.074;2023-04-07T17:39:45;8.80;99.90
20233;DHT22;37438;55.674;13.074;2023-04-07T17:42:50;8.70;99.90
20233;DHT22;37438;55.674;13.074;2023-04-07T17:45:54;8.70;99.90
20233;DHT22;37438;55.674;13.074;2023-04-07T17:48:59;8.60;99.90
20233;DHT22;37438;55.674;13.074;2023-04-07T17:52:03;8.60;99.90
20233;DHT22;37438;55.674;13.074;2023-04-07T17:55:08;8.60;99.90
20233;DHT22;37438;55.674;13.074;2023-04-07T17:58:12;8.50;99.90
20233;DHT22;37438;55.674;13.074;2023-04-07T18:01:42;8.50;99.90
20233;DHT22;37438;55.674;13.074;2023-04-07T18:04:47;8.40;99.90
20233;DHT22;37438;55.674;13.074;2023-04-07T18:07:51;8.40;99.90
20233;DHT22;37438;55.674;13.074;2023-04-07T18:10:57;8.30;99.90
20233;DHT22;37438;55.674;13.074;2023-04-07T18:14:02;8.30;99.90
20233;DHT22;37438;55.674;13.074;2023-04-07T18:17:06;8.30;1.00
20233;DHT22;37438;55.674;13.074;2023-04-07T18:20:11;8.20;1.00
20233;DHT22;37438;55.674;13.074;2023-04-07T18:23:16;8.20;1.00
20233;DHT22;37438;55.674;13.074;2023-04-07T18:26:20;8.10;1.00
20233;DHT22;37438;55.674;13.074;2023-04-07T18:29:25;8.00;7.60
20233;DHT22;37438;55.674;13.074;2023-04-07T18:32:30;8.00;22.50
20233;DHT22;37438;55.674;13.074;2023-04-07T18:35:35;7.90;46.80
20233;DHT22;37438;55.674;13.074;2023-04-07T18:38:40;7.80;69.60
20233;DHT22;37438;55.674;13.074;2023-04-07T18:41:44;7.80;77.70
20233;DHT22;37438;55.674;13.074;2023-04-07T18:44:49;7.70;63.40
20233;DHT22;37438;55.674;13.074;2023-04-07T18:47:54;7.70;73.20
20233;DHT22;37438;55.674;13.074;2023-04-07T18:50:59;7.60;70.60
20233;DHT22;37438;55.674;13.074;2023-04-07T18:54:03;7.60;74.30
20233;DHT22;37438;55.674;13.074;2023-04-07T18:57:07;7.50;79.30
20233;DHT22;37438;55.674;13.074;2023-04-07T19:00:12;7.50;84.90
20233;DHT22;37438;55.674;13.074;2023-04-07T19:03:16;7.40;96.10
20233;DHT22;37438;55.674;13.074;2023-04-07T19:06:21;7.40;99.90
20233;DHT22;37438;55.674;13.074;2023-04-07T19:09:25;7.30;99.90
20233;DHT22;37438;55.674;13.074;2023-04-07T19:12:29;7.30;99.90
20233;DHT22;37438;55.674;13.074;2023-04-07T19:15:33;7.30;99.90
20233;DHT22;37438;55.674;13.074;2023-04-07T19:18:41;7.20;99.90
20233;DHT22;37438;55.674;13.074;2023-04-07T19:21:45;7.20;99.90
20233;DHT22;37438;55.674;13.074;2023-04-07T19:24:50;7.10;99.90
20233;DHT22;37438;55.674;13.074;2023-04-07T19:27:54;7.10;99.90
20233;DHT22;37438;55.674;13.074;2023-04-07T19:30:58;7.10;99.90
20233;DHT22;37438;55.674;13.074;2023-04-07T19:34:02;7.00;1.00
20233;DHT22;37438;55.674;13.074;2023-04-07T19:37:06;6.90;1.00
20233;DHT22;37438;55.674;13.074;2023-04-07T19:40:11;6.90;38.60
20233;DHT22;37438;55.674;13.074;2023-04-07T19:43:15;6.80;99.90
20233;DHT22;37438;55.674;13.074;2023-04-07T19:46:20;6.80;99.90
20233;DHT22;37438;55.674;13.074;2023-04-07T19:49:24;6.70;99.90
20233;DHT22;37438;55.674;13.074;2023-04-07T19:52:30;6.70;99.90
20233;DHT22;37438;55.674;13.074;2023-04-07T19:55:35;6.60;1.00
20233;DHT22;37438;55.674;13.074;2023-04-07T19:58:40;6.60;4.50